createdAt,value
2024-05-09T00:00:00.946Z,3.60
2024-05-09T00:02:33.179Z,3.50
2024-05-09T00:05:04.927Z,4.10
2024-05-09T00:07:36.458Z,4.40
2024-05-09T00:10:14.480Z,4.20
2024-05-09T00:12:53.271Z,4.00
2024-05-09T00:15:24.444Z,4.10
2024-05-09T00:17:55.891Z,4.20
2024-05-09T00:20:35.306Z,3.80
2024-05-09T00:23:12.459Z,4.10
2024-05-09T00:25:45.501Z,4.20
2024-05-09T00:28:16.944Z,3.50
2024-05-09T00:30:51.833Z,3.80
2024-05-09T00:33:23.793Z,4.50
2024-05-09T00:35:55.162Z,4.60
2024-05-09T00:38:26.427Z,4.70
2024-05-09T00:40:57.823Z,4.00
2024-05-09T00:43:29.099Z,3.70
2024-05-09T00:46:01.708Z,4.10
2024-05-09T00:48:33.931Z,4.40
2024-05-09T00:51:06.534Z,4.70
2024-05-09T00:53:38.035Z,4.10
2024-05-09T00:56:11.351Z,4.40
2024-05-09T00:58:43.692Z,4.50
2024-05-09T01:01:18.039Z,4.40
2024-05-09T01:03:51.303Z,4.40
2024-05-09T01:06:23.513Z,3.90
2024-05-09T01:08:54.991Z,4.50
2024-05-09T01:11:33.428Z,4.40
2024-05-09T01:14:04.764Z,4.60
2024-05-09T01:16:36.198Z,4.60
2024-05-09T01:19:20.843Z,3.90
2024-05-09T01:21:52.287Z,4.10
2024-05-09T01:24:23.572Z,4.20
2024-05-09T01:26:58.261Z,3.90
2024-05-09T01:29:45.847Z,3.70
2024-05-09T01:32:20.054Z,3.90
2024-05-09T01:34:52.312Z,4.00
2024-05-09T01:37:26.100Z,5.00
2024-05-09T01:40:00.287Z,4.30
2024-05-09T01:42:34.464Z,5.10
2024-05-09T01:45:08.673Z,4.20
2024-05-09T01:47:39.975Z,4.60
2024-05-09T01:50:13.381Z,4.40
2024-05-09T01:52:47.578Z,4.40
2024-05-09T01:55:19.299Z,4.20
2024-05-09T01:57:50.601Z,4.30
2024-05-09T02:00:33.747Z,4.80
2024-05-09T02:03:15.682Z,4.40
2024-05-09T02:05:51.437Z,5.40
2024-05-09T02:10:54.405Z,4.40
2024-05-09T02:13:25.689Z,4.80
2024-05-09T02:15:57.903Z,5.10
2024-05-09T02:18:29.178Z,4.60
2024-05-09T02:21:00.671Z,4.80
2024-05-09T02:23:32.329Z,5.30
2024-05-09T02:26:03.672Z,4.80
2024-05-09T02:28:34.858Z,5.10
2024-05-09T02:31:06.342Z,6.10
2024-05-09T02:33:38.007Z,4.90
2024-05-09T02:36:10.125Z,6.20
2024-05-09T02:38:41.688Z,5.30
2024-05-09T02:41:12.997Z,5.60
2024-05-09T02:43:44.369Z,5.00
2024-05-09T02:46:15.712Z,4.60
2024-05-09T02:48:47.135Z,4.90
2024-05-09T02:51:18.544Z,4.80
2024-05-09T02:53:49.674Z,4.70
2024-05-09T02:56:21.005Z,4.80
2024-05-09T02:58:52.214Z,4.30
2024-05-09T03:01:23.674Z,4.50
2024-05-09T03:03:54.987Z,4.80
2024-05-09T03:06:26.432Z,5.70
2024-05-09T03:08:57.640Z,4.40
2024-05-09T03:11:29.258Z,5.60
2024-05-09T03:14:00.805Z,4.50
2024-05-09T03:16:32.044Z,5.10
2024-05-09T03:19:03.462Z,4.20
2024-05-09T03:21:38.302Z,4.60
2024-05-09T03:24:11.295Z,5.10
2024-05-09T03:26:43.189Z,5.00
2024-05-09T03:29:14.467Z,3.70
2024-05-09T03:31:45.802Z,4.40
2024-05-09T03:34:17.310Z,4.30
2024-05-09T03:36:48.512Z,4.30
2024-05-09T03:39:20.038Z,4.20
2024-05-09T03:41:51.368Z,4.60
2024-05-09T03:44:22.659Z,4.30
2024-05-09T03:46:53.911Z,4.80
2024-05-09T03:49:25.624Z,4.70
2024-05-09T03:51:56.960Z,4.30
2024-05-09T03:54:28.480Z,4.70
2024-05-09T03:56:59.706Z,4.30
2024-05-09T03:59:31.203Z,4.90
2024-05-09T04:02:02.552Z,4.70
2024-05-09T04:04:34.001Z,5.00
2024-05-09T04:07:05.509Z,4.50
2024-05-09T04:09:36.923Z,4.70
2024-05-09T04:12:09.704Z,4.50
2024-05-09T04:14:42.737Z,4.40
2024-05-09T04:17:13.975Z,4.70
2024-05-09T04:19:45.259Z,4.90
2024-05-09T04:22:16.987Z,4.90
2024-05-09T04:24:49.316Z,4.40
2024-05-09T04:27:20.767Z,4.20
2024-05-09T04:29:51.904Z,4.70
2024-05-09T04:32:23.541Z,4.10
2024-05-09T04:34:54.834Z,4.10
2024-05-09T04:37:26.196Z,4.70
2024-05-09T04:39:57.862Z,4.10
2024-05-09T04:42:29.432Z,4.10
2024-05-09T04:45:00.665Z,4.40
2024-05-09T04:47:32.109Z,4.80
2024-05-09T04:50:03.668Z,4.90
2024-05-09T04:52:35.787Z,5.50
2024-05-09T04:55:08.155Z,4.60
2024-05-09T04:57:39.756Z,4.90
2024-05-09T05:00:14.988Z,4.60
2024-05-09T05:02:53.301Z,4.40
2024-05-09T05:05:24.828Z,3.40
2024-05-09T05:07:56.285Z,5.60
2024-05-09T05:10:33.832Z,5.60
2024-05-09T05:13:20.812Z,5.50
2024-05-09T05:15:56.928Z,5.90
2024-05-09T05:18:29.826Z,7.40
2024-05-09T05:21:01.339Z,8.90
2024-05-09T05:23:32.841Z,6.90
2024-05-09T05:26:04.344Z,7.50
2024-05-09T05:28:35.628Z,6.40
2024-05-09T05:31:06.993Z,4.60
2024-05-09T05:33:38.464Z,4.30
2024-05-09T05:36:11.450Z,3.80
2024-05-09T05:38:43.050Z,4.30
2024-05-09T05:41:14.702Z,3.70
2024-05-09T05:43:46.023Z,3.20
2024-05-09T05:46:17.323Z,3.20
2024-05-09T05:48:49.092Z,3.10
2024-05-09T05:51:20.620Z,3.10
2024-05-09T05:53:52.072Z,3.90
2024-05-09T05:56:23.405Z,3.20
2024-05-09T05:58:54.815Z,4.50
2024-05-09T06:01:26.350Z,4.00
2024-05-09T06:03:57.740Z,3.20
2024-05-09T06:06:29.102Z,3.50
2024-05-09T06:09:00.411Z,3.90
2024-05-09T06:11:32.059Z,4.30
2024-05-09T06:14:05.201Z,4.10
2024-05-09T06:16:36.501Z,2.70
2024-05-09T06:19:07.922Z,2.80
2024-05-09T06:21:39.244Z,3.50
2024-05-09T06:24:10.427Z,3.80
2024-05-09T06:26:46.150Z,3.70
2024-05-09T06:29:17.542Z,3.70
2024-05-09T06:31:48.909Z,3.70
2024-05-09T06:34:21.497Z,3.80
2024-05-09T06:39:23.177Z,4.10
2024-05-09T06:41:54.386Z,3.50
2024-05-09T06:44:25.742Z,6.40
2024-05-09T06:46:59.759Z,4.00
2024-05-09T06:49:32.565Z,3.50
2024-05-09T06:52:04.359Z,3.70
2024-05-09T06:54:35.570Z,3.80
2024-05-09T06:57:07.526Z,3.30
2024-05-09T06:59:39.266Z,3.10
2024-05-09T07:02:10.910Z,2.50
2024-05-09T07:04:42.250Z,3.00
2024-05-09T07:07:13.618Z,4.70
2024-05-09T07:09:45.000Z,3.10
2024-05-09T07:12:16.431Z,3.20
2024-05-09T07:14:47.948Z,3.80
2024-05-09T07:17:19.993Z,4.10
2024-05-09T07:19:52.104Z,4.00
2024-05-09T07:22:25.157Z,3.60
2024-05-09T07:24:56.439Z,3.50
2024-05-09T07:27:28.793Z,3.10
2024-05-09T07:32:30.630Z,3.00
2024-05-09T07:35:02.388Z,3.30
2024-05-09T07:37:33.688Z,3.20
2024-05-09T07:40:07.487Z,3.10
2024-05-09T07:42:39.053Z,3.20
2024-05-09T07:45:29.673Z,3.10
2024-05-09T07:52:32.656Z,2.60
2024-05-09T07:53:39.961Z,2.90
2024-05-09T07:56:18.559Z,2.80
2024-05-09T07:58:52.359Z,2.90
2024-05-09T08:01:27.605Z,3.10
2024-05-09T08:03:59.917Z,3.10
2024-05-09T08:06:31.308Z,2.90
2024-05-09T08:09:08.037Z,2.70
2024-05-09T08:11:42.692Z,3.30
2024-05-09T08:14:14.234Z,2.80
2024-05-09T08:16:46.205Z,2.60
2024-05-09T08:19:19.779Z,2.80
2024-05-09T08:21:53.049Z,3.30
2024-05-09T08:24:24.830Z,3.90
2024-05-09T08:26:56.353Z,2.80
2024-05-09T08:29:27.782Z,3.40
2024-05-09T08:31:59.424Z,2.70
2024-05-09T08:34:31.646Z,2.80
2024-05-09T08:37:10.155Z,3.00
2024-05-09T08:39:46.920Z,3.00
2024-05-09T08:42:23.428Z,3.00
2024-05-09T08:44:54.837Z,2.60
2024-05-09T08:47:27.366Z,2.40
2024-05-09T08:50:01.623Z,2.50
2024-05-09T08:52:33.158Z,3.00
2024-05-09T08:55:04.923Z,2.90
2024-05-09T08:57:37.137Z,2.60
2024-05-09T09:00:14.864Z,2.80
2024-05-09T09:02:50.272Z,3.50
2024-05-09T09:05:24.789Z,3.10
2024-05-09T09:07:56.163Z,2.40
2024-05-09T09:10:32.421Z,2.90
2024-05-09T09:13:06.816Z,4.40
2024-05-09T09:15:49.149Z,2.90
2024-05-09T09:18:20.916Z,3.20
2024-05-09T09:21:10.082Z,3.20
2024-05-09T09:23:52.385Z,3.00
2024-05-09T09:26:24.372Z,2.50
2024-05-09T09:29:02.520Z,3.00
2024-05-09T09:31:34.054Z,2.70
2024-05-09T09:34:09.496Z,3.50
2024-05-09T09:36:41.652Z,3.10
2024-05-09T09:39:17.469Z,3.00
2024-05-09T09:41:50.035Z,3.60
2024-05-09T09:44:22.279Z,3.30
2024-05-09T09:46:57.093Z,2.80
2024-05-09T09:49:30.564Z,3.10
2024-05-09T09:52:02.872Z,3.00
2024-05-09T09:54:34.479Z,3.30
2024-05-09T09:57:07.792Z,2.70
2024-05-09T09:59:43.109Z,3.30
2024-05-09T10:02:14.715Z,3.20
2024-05-09T10:04:46.377Z,2.90
2024-05-09T10:07:19.850Z,3.90
2024-05-09T10:09:58.635Z,4.00
2024-05-09T10:12:30.064Z,3.70
2024-05-09T10:15:07.016Z,2.80
2024-05-09T10:17:38.341Z,2.80
2024-05-09T10:20:18.343Z,2.90
2024-05-09T10:22:53.336Z,3.70
2024-05-09T10:25:25.326Z,3.00
2024-05-09T10:27:58.533Z,5.40
2024-05-09T10:30:35.771Z,2.80
2024-05-09T10:33:12.066Z,2.70
2024-05-09T10:36:01.675Z,3.70
2024-05-09T10:38:38.661Z,3.80
2024-05-09T10:41:11.093Z,4.50
2024-05-09T10:43:43.430Z,3.20
2024-05-09T10:48:48.281Z,2.90
2024-05-09T10:51:21.228Z,3.00
2024-05-09T10:53:52.916Z,2.90
2024-05-09T10:56:24.611Z,2.80
2024-05-09T10:58:56.224Z,3.20
2024-05-09T11:01:28.255Z,2.70
2024-05-09T11:04:01.382Z,2.50
2024-05-09T11:06:34.799Z,2.50
2024-05-09T11:09:06.750Z,2.90
2024-05-09T11:11:38.366Z,2.50
2024-05-09T11:14:15.182Z,3.90
2024-05-09T11:16:46.364Z,4.80
2024-05-09T11:19:19.431Z,2.80
2024-05-09T11:21:54.161Z,2.90
2024-05-09T11:24:25.765Z,3.00
2024-05-09T11:26:57.668Z,2.50
2024-05-09T11:29:40.090Z,2.50
2024-05-09T11:32:13.338Z,3.30
2024-05-09T11:34:44.843Z,2.50
2024-05-09T11:37:16.548Z,2.40
2024-05-09T11:39:48.538Z,2.80
2024-05-09T11:42:20.483Z,2.30
2024-05-09T11:44:51.995Z,2.70
2024-05-09T11:47:23.383Z,2.50
2024-05-09T11:49:56.013Z,2.60
2024-05-09T11:52:27.829Z,3.10
2024-05-09T11:54:59.303Z,2.90
2024-05-09T11:57:31.137Z,2.90
2024-05-09T12:00:03.216Z,3.30
2024-05-09T12:02:36.127Z,2.60
2024-05-09T12:05:08.246Z,2.90
2024-05-09T12:07:39.705Z,3.30
2024-05-09T12:10:16.610Z,3.20
2024-05-09T12:12:51.177Z,2.60
2024-05-09T12:15:22.808Z,2.40
2024-05-09T12:17:55.866Z,5.80
2024-05-09T12:20:35.817Z,3.40
2024-05-09T12:23:10.837Z,2.80
2024-05-09T12:25:42.675Z,2.50
2024-05-09T12:28:14.346Z,3.70
2024-05-09T12:30:46.153Z,3.00
2024-05-09T12:33:19.535Z,3.70
2024-05-09T12:35:51.579Z,3.20
2024-05-09T12:38:23.116Z,3.00
2024-05-09T12:40:54.814Z,3.30
2024-05-09T12:43:26.671Z,3.00
2024-05-09T12:45:58.259Z,3.40
2024-05-09T12:48:30.568Z,3.70
2024-05-09T12:51:02.051Z,3.60
2024-05-09T12:53:33.525Z,6.90
2024-05-09T12:56:06.652Z,4.10
2024-05-09T12:58:39.645Z,3.70
2024-05-09T13:01:10.900Z,4.00
2024-05-09T13:03:42.418Z,3.30
2024-05-09T13:06:14.375Z,3.30
2024-05-09T13:08:45.648Z,3.40
2024-05-09T13:11:17.037Z,3.40
2024-05-09T13:13:48.255Z,3.60
2024-05-09T13:16:19.681Z,3.00
2024-05-09T13:18:51.226Z,3.40
2024-05-09T13:21:22.994Z,3.90
2024-05-09T13:23:54.882Z,5.90
2024-05-09T13:28:57.830Z,3.40
2024-05-09T13:31:32.059Z,3.30
2024-05-09T13:34:03.486Z,3.80
2024-05-09T13:36:34.904Z,3.40
2024-05-09T13:39:09.128Z,3.90
2024-05-09T13:41:40.485Z,3.60
2024-05-09T13:44:11.948Z,3.30
2024-05-09T13:46:43.220Z,4.70
2024-05-09T13:49:16.453Z,3.20
2024-05-09T13:51:47.766Z,3.40
2024-05-09T13:54:21.894Z,3.90
2024-05-09T13:56:54.093Z,3.60
2024-05-09T13:59:25.362Z,3.70
2024-05-09T14:01:56.739Z,3.90
2024-05-09T14:04:28.583Z,3.10
2024-05-09T14:07:00.120Z,2.80
2024-05-09T14:09:31.574Z,3.30
2024-05-09T14:12:03.027Z,3.40
2024-05-09T14:14:34.763Z,3.30
2024-05-09T14:17:06.492Z,2.80
2024-05-09T14:19:37.774Z,3.50
2024-05-09T14:22:09.411Z,3.50
2024-05-09T14:24:40.859Z,3.10
2024-05-09T14:27:12.298Z,3.10
2024-05-09T14:29:43.741Z,3.20
2024-05-09T14:32:15.559Z,3.20
2024-05-09T14:34:47.399Z,3.40
2024-05-09T14:37:18.798Z,3.50
2024-05-09T14:39:50.245Z,3.10
2024-05-09T14:42:22.368Z,3.10
2024-05-09T14:44:53.503Z,3.40
2024-05-09T14:47:24.859Z,3.90
2024-05-09T14:49:56.245Z,3.20
2024-05-09T14:52:27.496Z,3.10
2024-05-09T14:55:00.710Z,3.10
2024-05-09T14:57:32.851Z,3.50
2024-05-09T15:00:08.970Z,3.10
2024-05-09T15:02:42.966Z,3.50
2024-05-09T15:05:14.563Z,3.90
2024-05-09T15:07:46.571Z,2.80
2024-05-09T15:10:26.547Z,3.60
2024-05-09T15:13:05.096Z,3.40
2024-05-09T15:15:36.651Z,3.00
2024-05-09T15:18:08.888Z,3.00
2024-05-09T15:20:41.037Z,3.60
2024-05-09T15:23:12.377Z,3.00
2024-05-09T15:25:45.148Z,3.40
2024-05-09T15:28:16.882Z,2.70
2024-05-09T15:30:48.425Z,2.90
2024-05-09T15:33:20.149Z,3.40
2024-05-09T15:35:53.272Z,3.20
2024-05-09T15:38:26.108Z,3.30
2024-05-09T15:40:57.449Z,3.50
2024-05-09T15:43:29.038Z,3.00
2024-05-09T15:46:00.751Z,3.20
2024-05-09T15:48:32.355Z,4.10
2024-05-09T15:51:03.709Z,3.50
2024-05-09T15:53:35.771Z,3.10
2024-05-09T15:56:10.729Z,3.20
2024-05-09T15:58:42.344Z,2.80
2024-05-09T16:01:14.744Z,3.60
2024-05-09T16:03:46.753Z,4.10
2024-05-09T16:06:19.377Z,3.10
2024-05-09T16:08:50.954Z,3.10
2024-05-09T16:11:23.261Z,4.00
2024-05-09T16:13:55.163Z,3.10
2024-05-09T16:16:27.261Z,3.10
2024-05-09T16:18:59.121Z,2.90
2024-05-09T16:21:30.521Z,3.10
2024-05-09T16:24:02.208Z,3.00
2024-05-09T16:26:33.683Z,3.60
2024-05-09T16:29:05.400Z,3.30
2024-05-09T16:31:37.761Z,3.20
2024-05-09T16:34:10.478Z,3.10
2024-05-09T16:36:43.581Z,2.80
2024-05-09T16:39:14.902Z,2.70
2024-05-09T16:41:46.432Z,3.60
2024-05-09T16:44:17.701Z,3.90
2024-05-09T16:46:49.049Z,3.20
2024-05-09T16:49:20.798Z,3.40
2024-05-09T16:51:52.204Z,4.30
2024-05-09T16:54:23.518Z,3.20
2024-05-09T16:56:55.007Z,3.50
2024-05-09T16:59:26.518Z,3.70
2024-05-09T17:01:58.805Z,5.10
2024-05-09T17:07:01.613Z,3.20
2024-05-09T17:12:04.231Z,3.40
2024-05-09T17:14:35.423Z,3.10
2024-05-09T17:17:09.051Z,3.80
2024-05-09T17:19:42.170Z,3.60
2024-05-09T17:22:13.820Z,3.20
2024-05-09T17:24:45.188Z,2.90
2024-05-09T17:27:24.866Z,3.00
2024-05-09T17:30:17.933Z,3.30
2024-05-09T17:33:14.042Z,3.20
2024-05-09T17:36:04.758Z,2.70
2024-05-09T17:38:54.514Z,3.50
2024-05-09T17:41:44.189Z,3.20
2024-05-09T17:44:33.446Z,2.90
2024-05-09T17:47:23.291Z,3.50
2024-05-09T17:49:59.232Z,3.00
2024-05-09T17:52:30.569Z,3.10
2024-05-09T17:55:02.014Z,3.40
2024-05-09T17:57:33.796Z,3.40
2024-05-09T18:00:11.128Z,3.00
2024-05-09T18:02:46.425Z,3.10
2024-05-09T18:05:17.953Z,3.30
2024-05-09T18:07:49.581Z,2.70
2024-05-09T18:10:26.001Z,3.10
2024-05-09T18:13:05.198Z,3.10
2024-05-09T18:15:37.189Z,3.60
2024-05-09T18:18:19.796Z,2.90
2024-05-09T18:20:52.324Z,3.40
2024-05-09T18:23:24.014Z,2.80
2024-05-09T18:25:57.094Z,2.80
2024-05-09T18:28:30.504Z,3.10
2024-05-09T18:31:02.499Z,3.70
2024-05-09T18:33:35.568Z,4.40
2024-05-09T18:36:10.099Z,3.40
2024-05-09T18:38:42.207Z,4.20
2024-05-09T18:41:13.484Z,4.10
2024-05-09T18:43:45.613Z,3.80
2024-05-09T18:46:20.075Z,4.50
2024-05-09T18:48:51.916Z,3.80
2024-05-09T18:51:23.570Z,4.60
2024-05-09T18:53:55.517Z,3.80
2024-05-09T18:56:27.976Z,3.60
2024-05-09T19:01:30.484Z,4.20
2024-05-09T19:04:02.486Z,9.00
2024-05-09T19:06:36.035Z,8.30
2024-05-09T19:09:07.329Z,4.50
2024-05-09T19:11:39.812Z,4.60
2024-05-09T19:16:42.067Z,4.10
2024-05-09T19:19:15.417Z,5.70
2024-05-09T19:21:47.223Z,4.30
2024-05-09T19:24:18.660Z,4.20
2024-05-09T19:26:52.803Z,4.50
2024-05-09T19:29:24.880Z,4.60
2024-05-09T19:31:56.945Z,4.40
2024-05-09T19:34:28.519Z,4.50
2024-05-09T19:37:02.389Z,5.00
2024-05-09T19:39:34.388Z,4.80
2024-05-09T19:42:06.856Z,4.40
2024-05-09T19:44:38.262Z,4.60
2024-05-09T19:47:09.971Z,4.70
2024-05-09T19:49:42.359Z,5.40
2024-05-09T19:52:21.340Z,4.70
2024-05-09T19:55:01.281Z,5.30
2024-05-09T19:57:33.137Z,5.20
2024-05-09T20:00:06.063Z,4.90
2024-05-09T20:02:40.976Z,5.20
2024-05-09T20:05:13.182Z,4.80
2024-05-09T20:07:45.829Z,5.70
2024-05-09T20:10:23.767Z,7.60
2024-05-09T20:12:58.557Z,6.90
2024-05-09T20:15:30.870Z,6.50
2024-05-09T20:18:06.122Z,6.30
2024-05-09T20:20:42.405Z,6.30
2024-05-09T20:23:15.922Z,6.40
2024-05-09T20:25:47.183Z,7.00
2024-05-09T20:28:19.149Z,7.30
2024-05-09T20:30:52.144Z,6.60
2024-05-09T20:33:23.612Z,6.80
2024-05-09T20:35:59.374Z,7.80
2024-05-09T20:38:31.886Z,7.10
2024-05-09T20:41:03.971Z,6.70
2024-05-09T20:43:35.283Z,6.70
2024-05-09T20:46:06.886Z,7.00
2024-05-09T20:48:38.374Z,6.30
2024-05-09T20:51:10.537Z,7.00
2024-05-09T20:53:42.472Z,6.80
2024-05-09T20:56:13.968Z,6.50
2024-05-09T20:58:45.518Z,7.00
2024-05-09T21:01:17.104Z,6.30
2024-05-09T21:03:49.280Z,7.70
2024-05-09T21:08:53.616Z,7.80
2024-05-09T21:11:25.492Z,7.70
2024-05-09T21:13:57.186Z,6.90
2024-05-09T21:16:28.855Z,7.50
2024-05-09T21:19:00.482Z,8.30
2024-05-09T21:21:39.042Z,8.90
2024-05-09T21:24:10.538Z,9.30
2024-05-09T21:26:42.064Z,9.40
2024-05-09T21:29:13.846Z,9.30
2024-05-09T21:31:45.409Z,10.60
2024-05-09T21:34:16.989Z,10.50
2024-05-09T21:36:48.974Z,9.70
2024-05-09T21:39:24.071Z,11.20
2024-05-09T21:42:01.410Z,11.90
2024-05-09T21:44:32.905Z,10.10
2024-05-09T21:47:06.095Z,12.30
2024-05-09T21:49:47.732Z,13.10
2024-05-09T21:52:31.038Z,11.80
2024-05-09T21:55:02.628Z,12.40
2024-05-09T21:57:34.490Z,9.30
2024-05-09T22:00:58.910Z,10.30
2024-05-09T22:04:07.240Z,12.40
2024-05-09T22:06:39.001Z,12.70
2024-05-09T22:09:10.375Z,11.50
2024-05-09T22:11:41.787Z,11.70
2024-05-09T22:14:13.403Z,12.20
2024-05-09T22:16:44.931Z,12.30
2024-05-09T22:19:16.853Z,10.80
2024-05-09T22:21:48.864Z,9.70
2024-05-09T22:24:20.712Z,10.90
2024-05-09T22:26:54.915Z,10.50
2024-05-09T22:29:26.971Z,10.10
2024-05-09T22:31:58.990Z,11.30
2024-05-09T22:34:31.248Z,10.70
2024-05-09T22:37:03.446Z,10.30
2024-05-09T22:39:35.567Z,11.60
2024-05-09T22:42:07.871Z,10.40
2024-05-09T22:44:39.702Z,11.30
2024-05-09T22:47:11.686Z,10.20
2024-05-09T22:49:43.533Z,7.30
2024-05-09T22:52:15.063Z,10.20
2024-05-09T22:54:46.516Z,9.30
2024-05-09T22:57:17.708Z,9.80
2024-05-09T22:59:49.008Z,10.10
2024-05-09T23:02:20.493Z,9.40
2024-05-09T23:04:52.009Z,9.00
2024-05-09T23:07:23.367Z,9.60
2024-05-09T23:09:54.745Z,10.90
2024-05-09T23:12:26.036Z,11.40
2024-05-09T23:14:57.310Z,11.70
2024-05-09T23:17:28.669Z,10.90
2024-05-09T23:20:00.282Z,11.10
2024-05-09T23:22:31.882Z,11.20
2024-05-09T23:25:03.267Z,9.80
2024-05-09T23:27:35.170Z,10.90
2024-05-09T23:30:12.100Z,11.70
2024-05-09T23:32:43.762Z,10.20
2024-05-09T23:35:15.349Z,10.50
2024-05-09T23:37:46.616Z,10.80
2024-05-09T23:40:19.151Z,11.10
2024-05-09T23:42:54.022Z,10.70
2024-05-09T23:45:25.576Z,9.60
2024-05-09T23:47:56.842Z,10.80
2024-05-09T23:50:34.496Z,11.50
2024-05-09T23:53:10.172Z,10.60
2024-05-09T23:55:42.529Z,10.10
2024-05-09T23:58:13.901Z,11.50
